createdAt,value
2023-07-28T00:02:30.645Z,100449.38234464773
2023-07-28T00:05:26.170Z,100444.70491038205
2023-07-28T00:08:21.721Z,100444.13373093035
2023-07-28T00:11:17.292Z,100437.71772464698
2023-07-28T00:14:12.887Z,100433.71928766664
2023-07-28T00:17:08.390Z,100429.30432888572
2023-07-28T00:20:04.944Z,100431.29629657141
2023-07-28T00:23:00.549Z,100428.78190287133
2023-07-28T00:25:56.082Z,100424.68850552825
2023-07-28T00:28:51.641Z,100434.25375539482
2023-07-28T00:31:47.193Z,100433.31426797388
2023-07-28T00:34:42.782Z,100429.39418273553
2023-07-28T00:37:38.316Z,100436.87605101528
2023-07-28T00:40:34.869Z,100437.81202167094
2023-07-28T00:43:30.460Z,100435.4326312831
2023-07-28T00:46:27.071Z,100437.30352056745
2023-07-28T00:49:22.529Z,100436.62638685484
2023-07-28T00:52:19.140Z,100434.91424190749
2023-07-28T00:55:14.708Z,100433.67911675536
2023-07-28T00:58:11.225Z,100439.55572553814
2023-07-28T01:01:06.795Z,100441.20067255561
2023-07-28T01:04:04.365Z,100438.58972102763
2023-07-28T01:07:09.888Z,100438.69526795353
2023-07-28T01:10:11.419Z,100437.3818653215
2023-07-28T01:13:07.035Z,100437.33890014367
2023-07-28T01:16:02.662Z,100441.22213206184
2023-07-28T01:18:58.153Z,100438.17324783259
2023-07-28T01:22:01.685Z,100435.07276341144
2023-07-28T01:25:07.225Z,100428.43169875778
2023-07-28T01:28:03.821Z,100422.05037154446
2023-07-28T01:31:00.347Z,100415.97492920893
2023-07-28T01:33:55.876Z,100423.51650126147
2023-07-28T01:36:51.440Z,100421.69299298483
2023-07-28T01:39:47.014Z,100417.77183460757
2023-07-28T01:42:42.573Z,100417.14695944247
2023-07-28T01:45:40.157Z,100417.51137370746
2023-07-28T01:48:35.754Z,100414.40950730946
2023-07-28T01:51:31.273Z,100424.37630272249
2023-07-28T01:54:26.805Z,100424.60889755886
2023-07-28T01:57:22.378Z,100426.62297952553
2023-07-28T02:00:18.979Z,100424.75964078141
2023-07-28T02:03:14.522Z,100423.17436282494
2023-07-28T02:06:10.041Z,100426.68906481366
2023-07-28T02:09:05.637Z,100424.20665374173
2023-07-28T02:12:01.197Z,100417.52870951018
2023-07-28T02:14:56.764Z,100411.66160595106
2023-07-28T02:17:52.342Z,100412.67983268353
2023-07-28T02:20:48.893Z,100415.4185504262
2023-07-28T02:23:44.445Z,100409.37870059529
2023-07-28T02:26:39.991Z,100409.88185241056
2023-07-28T02:29:35.555Z,100409.75177892155
2023-07-28T02:32:32.148Z,100413.06418375715
2023-07-28T02:35:27.687Z,100414.07209294902
2023-07-28T02:38:23.267Z,100408.92322712384
2023-07-28T02:41:18.834Z,100410.60274081751
2023-07-28T02:44:14.375Z,100413.44316373472
2023-07-28T02:47:09.964Z,100413.42254074191
2023-07-28T02:50:06.494Z,100416.91022517337
2023-07-28T02:53:02.054Z,100431.12423891094
2023-07-28T02:55:58.607Z,100426.06769487562
2023-07-28T02:58:54.174Z,100423.63563987197
2023-07-28T03:01:52.842Z,100418.03993285412
2023-07-28T03:04:48.328Z,100412.97450369612
2023-07-28T03:07:43.831Z,100407.81318727552
2023-07-28T03:10:39.416Z,100420.95775787596
2023-07-28T03:13:35.014Z,100422.5076724072
2023-07-28T03:16:30.566Z,100414.77374203129
2023-07-28T03:19:26.072Z,100413.19219768449
2023-07-28T03:22:21.634Z,100426.07084147976
2023-07-28T03:25:19.239Z,100424.3665800542
2023-07-28T03:28:14.826Z,100438.32784432461
2023-07-28T03:31:10.335Z,100431.72411519135
2023-07-28T03:34:05.924Z,100429.63525741245
2023-07-28T03:37:01.476Z,100434.19398407782
2023-07-28T03:39:57.065Z,100436.76653486841
2023-07-28T03:42:52.606Z,100438.56438381558
2023-07-28T03:45:49.166Z,100441.28065363542
2023-07-28T03:48:44.702Z,100436.38780128992
2023-07-28T03:51:40.268Z,100444.78757038296
2023-07-28T03:54:35.828Z,100455.34655536928
2023-07-28T03:57:31.413Z,100452.65859037633
2023-07-28T04:00:26.984Z,100467.57515359475
2023-07-28T04:03:22.486Z,100463.95049618014
2023-07-28T04:06:18.086Z,100463.25002470607
2023-07-28T04:09:14.614Z,100463.22182524741
2023-07-28T04:12:10.204Z,100459.27624256541
2023-07-28T04:15:06.782Z,100448.26645862803
2023-07-28T04:18:02.368Z,100456.40558642047
2023-07-28T04:20:57.861Z,100456.34379358798
2023-07-28T04:23:53.416Z,100454.16624307384
2023-07-28T04:26:50.218Z,100461.35795961847
2023-07-28T04:29:45.551Z,100467.3205671198
2023-07-28T04:32:41.143Z,100468.2744201422
2023-07-28T04:35:37.684Z,100458.10263507419
2023-07-28T04:38:33.255Z,100457.48657976562
2023-07-28T04:41:29.812Z,100448.84123857743
2023-07-28T04:44:25.357Z,100440.73640746078
2023-07-28T04:47:20.954Z,100439.02331905277
2023-07-28T04:50:16.468Z,100436.61969166466
2023-07-28T04:53:12.065Z,100444.04209167723
2023-07-28T04:56:08.630Z,100455.264608872
2023-07-28T04:59:07.220Z,100448.4880206748
2023-07-28T05:02:02.739Z,100450.03399553582
2023-07-28T05:04:58.274Z,100451.04153887446
2023-07-28T05:07:53.857Z,100444.73479432295
2023-07-28T05:10:49.460Z,100449.60354119114
2023-07-28T05:13:44.999Z,100454.60609856324
2023-07-28T05:16:40.533Z,100451.00478951364
2023-07-28T05:19:38.094Z,100447.13995473563
2023-07-28T05:22:33.668Z,100439.52640084071
2023-07-28T05:25:29.236Z,100442.10091699463
2023-07-28T05:28:25.874Z,100434.22023095196
2023-07-28T05:31:21.453Z,100436.92858957362
2023-07-28T05:34:16.892Z,100435.05147976647
2023-07-28T05:37:12.481Z,100443.69404452022
2023-07-28T05:40:09.085Z,100440.67807304062
2023-07-28T05:43:04.607Z,100444.30087890575
2023-07-28T05:46:01.169Z,100446.81545017041
2023-07-28T05:48:58.704Z,100441.29025918397
2023-07-28T05:51:54.227Z,100445.49226214302
2023-07-28T05:54:49.817Z,100447.11956271669
2023-07-28T05:57:45.369Z,100440.88025793356
2023-07-28T06:00:42.983Z,100442.82108688864
2023-07-28T06:03:38.595Z,100446.53372782565
2023-07-28T06:06:35.040Z,100445.21123493905
2023-07-28T06:09:30.663Z,100438.705203347
2023-07-28T06:12:26.205Z,100440.07993878436
2023-07-28T06:15:21.762Z,100445.05519885574
2023-07-28T06:18:17.295Z,100451.44643221324
2023-07-28T06:21:14.869Z,100455.37860790432
2023-07-28T06:24:10.446Z,100466.13940187686
2023-07-28T06:27:09.011Z,100468.42061176231
2023-07-28T06:30:06.559Z,100464.9738073344
2023-07-28T06:33:04.139Z,100461.26482666307
2023-07-28T06:36:00.649Z,100467.89926353579
2023-07-28T06:38:57.188Z,100470.97905654971
2023-07-28T06:41:52.781Z,100469.24230808714
2023-07-28T06:44:48.381Z,100464.26671092848
2023-07-28T06:47:44.880Z,100455.84249902751
2023-07-28T06:50:41.431Z,100454.6342866814
2023-07-28T06:53:37.018Z,100455.46365647847
2023-07-28T06:56:32.585Z,100455.71808562579
2023-07-28T06:59:28.104Z,100441.84167210953
2023-07-28T07:02:24.707Z,100443.90324839544
2023-07-28T07:05:20.289Z,100443.91262929763
2023-07-28T07:08:15.810Z,100444.47201982404
2023-07-28T07:11:12.385Z,100445.50164884483
2023-07-28T07:14:08.924Z,100443.26899409236
2023-07-28T07:17:05.515Z,100448.6970598696
2023-07-28T07:20:01.062Z,100454.78388929827
2023-07-28T07:22:58.291Z,100456.41699702876
2023-07-28T07:25:55.224Z,100461.17445400977
2023-07-28T07:28:50.744Z,100466.63559284668
2023-07-28T07:31:46.285Z,100467.37395801238
2023-07-28T07:34:41.824Z,100475.38180367301
2023-07-28T07:37:38.453Z,100468.96464660317
2023-07-28T07:40:34.005Z,100464.24221369626
2023-07-28T07:43:29.553Z,100455.25295544679
2023-07-28T07:46:27.104Z,100459.5945959866
2023-07-28T07:49:23.654Z,100463.53082487674
2023-07-28T07:52:19.232Z,100466.30381275536
2023-07-28T07:55:14.824Z,100452.4363423073
2023-07-28T07:58:10.386Z,100444.53714732939
2023-07-28T08:01:07.990Z,100447.63212227017
2023-07-28T08:04:05.515Z,100445.42396893646
2023-07-28T08:07:02.051Z,100450.70141036055
2023-07-28T08:09:57.608Z,100446.34395110523
2023-07-28T08:12:53.152Z,100446.72379426035
2023-07-28T08:15:49.746Z,100452.91758189695
2023-07-28T08:18:47.275Z,100455.11700384652
2023-07-28T08:21:43.849Z,100446.47176956893
2023-07-28T08:24:39.406Z,100443.46967122953
2023-07-28T08:27:35.947Z,100445.32745798427
2023-07-28T08:30:32.516Z,100448.47418525856
2023-07-28T08:33:28.035Z,100459.33919070777
2023-07-28T08:36:23.615Z,100457.58150497865
2023-07-28T08:39:19.237Z,100456.81381132244
2023-07-28T08:42:14.764Z,100454.61894435283
2023-07-28T08:45:10.356Z,100450.1542898038
2023-07-28T08:48:07.104Z,100445.85247145651
2023-07-28T08:51:03.451Z,100446.28038382877
2023-07-28T08:53:59.007Z,100452.44092763489
2023-07-28T08:56:58.528Z,100455.07019164006
2023-07-28T08:59:55.116Z,100442.27469961325
2023-07-28T09:02:51.735Z,100443.5549139382
2023-07-28T09:05:50.234Z,100435.73679644433
2023-07-28T09:08:47.762Z,100440.92462956629
2023-07-28T09:11:47.346Z,100439.58716974253
2023-07-28T09:14:45.882Z,100451.04129369097
2023-07-28T09:17:43.459Z,100443.87509386259
2023-07-28T09:20:41.981Z,100440.43854526682
2023-07-28T09:23:40.540Z,100447.38026608773
2023-07-28T09:26:39.195Z,100439.29388756497
2023-07-28T09:29:41.735Z,100430.44718280868
2023-07-28T09:32:39.321Z,100422.17859501907
2023-07-28T09:35:48.743Z,100416.519865062
2023-07-28T09:38:44.271Z,100409.6506651246
2023-07-28T09:41:45.810Z,100402.17803389487
2023-07-28T09:44:41.449Z,100400.7756495956
2023-07-28T09:47:38.981Z,100390.66687436982
2023-07-28T09:50:38.521Z,100395.79779945349
2023-07-28T09:53:37.087Z,100388.46140209839
2023-07-28T09:56:33.644Z,100397.25445704271
2023-07-28T09:59:33.199Z,100386.86991561309
2023-07-28T10:02:29.826Z,100390.36505112726
2023-07-28T10:05:27.298Z,100381.09893227079
2023-07-28T10:08:26.650Z,100382.90286780463
2023-07-28T10:11:26.416Z,100380.20555508118
2023-07-28T10:14:28.021Z,100377.77885683962
2023-07-28T10:17:28.484Z,100374.67921668538
2023-07-28T10:20:30.057Z,100373.21050712175
2023-07-28T10:23:25.570Z,100373.646362711
2023-07-28T10:26:36.332Z,100368.36870564711
2023-07-28T10:29:38.681Z,100371.18246524279
2023-07-28T10:32:38.243Z,100367.7566242597
2023-07-28T10:35:44.753Z,100358.41896703804
2023-07-28T10:38:55.311Z,100364.30827540197
2023-07-28T10:44:56.376Z,100357.7881570294
2023-07-28T10:47:53.985Z,100360.91142565291
2023-07-28T10:50:51.538Z,100357.34154021504
2023-07-28T10:53:50.033Z,100355.6810437592
2023-07-28T10:56:45.623Z,100347.57589967622
2023-07-28T10:59:43.188Z,100351.26867953535
2023-07-28T11:02:43.807Z,100355.53745462689
2023-07-28T11:05:43.307Z,100357.87953673235
2023-07-28T11:08:39.846Z,100364.59304543298
2023-07-28T11:11:42.709Z,100360.38219601895
2023-07-28T11:14:41.926Z,100349.0586963826
2023-07-28T11:17:40.570Z,100347.80823089609
2023-07-28T11:20:37.055Z,100349.88792367942
2023-07-28T11:23:34.601Z,100344.73772138676
2023-07-28T11:26:31.165Z,100346.9357032768
2023-07-28T11:29:27.697Z,100334.69607781137
2023-07-28T11:32:23.291Z,100330.0339699137
2023-07-28T11:35:20.854Z,100335.59656576082
2023-07-28T11:38:18.424Z,100325.87288183527
2023-07-28T11:41:17.349Z,100317.79382019873
2023-07-28T11:44:21.522Z,100311.45415441203
2023-07-28T11:47:19.056Z,100314.16595017051
2023-07-28T11:50:23.586Z,100318.21639370815
2023-07-28T11:53:21.140Z,100305.29398852456
2023-07-28T11:56:16.666Z,100304.82052704754
2023-07-28T11:59:15.236Z,100303.38938393633
2023-07-28T12:05:21.358Z,100296.64838793184
2023-07-28T12:08:25.887Z,100295.487983501
2023-07-28T12:20:37.001Z,100281.67921720725
2023-07-28T12:26:35.278Z,100274.12219517176
2023-07-28T12:29:31.788Z,100275.07963773627
2023-07-28T12:32:35.970Z,100276.02671745571
2023-07-28T12:41:41.221Z,100254.14982983355
2023-07-28T12:47:37.712Z,100250.48662701968
2023-07-28T12:50:41.564Z,100240.32138157623
2023-07-28T12:53:32.130Z,100247.31940098936
2023-07-28T12:59:26.578Z,100237.62069583929
2023-07-28T13:02:21.823Z,100235.32363002034
2023-07-28T13:05:18.442Z,100237.22927032165
2023-07-28T13:08:14.920Z,100243.81383633136
2023-07-28T13:14:11.051Z,100227.26935226146
2023-07-28T13:17:07.604Z,100230.7845027676
2023-07-28T13:20:05.106Z,100239.5130507953
2023-07-28T13:23:00.740Z,100227.70049488111
2023-07-28T13:25:56.289Z,100220.03071644381
2023-07-28T13:28:52.804Z,100216.05149880325
2023-07-28T13:31:49.416Z,100215.01521049892
2023-07-28T13:34:45.978Z,100208.31110096212
2023-07-28T13:37:42.565Z,100215.48129989547
2023-07-28T13:40:39.091Z,100212.27801015698
2023-07-28T13:43:38.660Z,100214.59576672442
2023-07-28T13:46:34.181Z,100217.42789050356
2023-07-28T13:49:29.797Z,100214.4144928987
2023-07-28T13:52:25.776Z,100221.62360964979
2023-07-28T13:55:40.910Z,100218.34139660507
2023-07-28T13:58:23.433Z,100219.63711405412
2023-07-28T14:01:19.043Z,100222.70349774371
2023-07-28T14:04:15.550Z,100220.10111313642
2023-07-28T14:07:11.143Z,100216.66630868101
2023-07-28T14:10:09.678Z,100212.10532593953
2023-07-28T14:13:05.326Z,100211.75072088673
2023-07-28T14:16:00.846Z,100213.56270617156
2023-07-28T14:18:56.310Z,100216.67423916596
2023-07-28T14:21:52.912Z,100209.87023886098
2023-07-28T14:24:49.475Z,100208.90523093884
2023-07-28T14:27:45.026Z,100210.59105006533
2023-07-28T14:30:46.648Z,100214.07639725137
2023-07-28T14:33:42.155Z,100206.90709155254
2023-07-28T14:36:37.714Z,100204.31559866016
2023-07-28T14:39:33.240Z,100196.50390974335
2023-07-28T14:42:28.843Z,100196.6805205883
2023-07-28T14:45:25.377Z,100206.15398673397
2023-07-28T14:48:20.954Z,100197.95093591684
2023-07-28T14:51:16.541Z,100193.21569988928
2023-07-28T14:54:13.037Z,100183.06461767745
2023-07-28T14:57:28.778Z,100194.4677085426
2023-07-28T15:00:15.174Z,100187.95016866585
2023-07-28T15:03:10.796Z,100183.07791864993
2023-07-28T15:06:06.571Z,100176.03979786386
2023-07-28T15:09:01.893Z,100176.8740167057
2023-07-28T15:11:58.409Z,100182.53884491896
2023-07-28T15:14:53.988Z,100182.69972007572
2023-07-28T15:17:49.619Z,100183.38765965079
2023-07-28T15:20:46.107Z,100178.43569618846
2023-07-28T15:23:41.633Z,100176.45162028147
2023-07-28T15:26:39.273Z,100177.77941877929
2023-07-28T15:29:35.744Z,100181.70452518285
2023-07-28T15:32:32.352Z,100182.82766220764
2023-07-28T15:35:27.889Z,100169.50231732348
2023-07-28T15:38:24.473Z,100166.5756888279
2023-07-28T15:41:20.032Z,100170.87799045883
2023-07-28T15:44:16.582Z,100174.67968034893
2023-07-28T15:47:12.130Z,100172.2762186722
2023-07-28T15:50:08.749Z,100167.18812925747
2023-07-28T15:53:05.250Z,100170.96587598565
2023-07-28T15:56:00.767Z,100174.95067489489
2023-07-28T15:58:56.388Z,100172.85081627795
2023-07-28T16:01:51.993Z,100157.76460863833
2023-07-28T16:04:47.531Z,100160.05994516525
2023-07-28T16:07:43.066Z,100164.02641335025
2023-07-28T16:10:41.743Z,100156.10992189907
2023-07-28T16:13:37.166Z,100157.61746409109
2023-07-28T16:16:32.806Z,100154.10756184589
2023-07-28T16:19:28.304Z,100152.2252261514
2023-07-28T16:22:26.850Z,100147.54766833485
2023-07-28T16:25:24.462Z,100141.21128839288
2023-07-28T16:28:21.012Z,100139.69700696338
2023-07-28T16:31:16.598Z,100150.83151653431
2023-07-28T16:34:12.112Z,100153.08976722216
2023-07-28T16:37:07.670Z,100152.48356768713
2023-07-28T16:40:04.236Z,100150.20381545549
2023-07-28T16:42:59.809Z,100148.28619003712
2023-07-28T16:45:55.391Z,100150.99979177417
2023-07-28T16:48:51.941Z,100145.01323571481
2023-07-28T16:51:48.446Z,100150.06088050127
2023-07-28T16:54:44.001Z,100159.70143510857
2023-07-28T16:57:40.569Z,100166.63935486159
2023-07-28T17:00:37.173Z,100162.10680338164
2023-07-28T17:03:32.793Z,100157.06812929412
2023-07-28T17:06:28.259Z,100149.26215312602
2023-07-28T17:09:25.822Z,100148.13975677034
2023-07-28T17:12:21.396Z,100150.78964477095
2023-07-28T17:15:26.413Z,100152.26101397631
2023-07-28T17:18:17.566Z,100157.47548082269
2023-07-28T17:21:13.052Z,100161.46863636925
2023-07-28T17:24:08.610Z,100161.09964323504
2023-07-28T17:27:06.205Z,100152.04780131689
2023-07-28T17:30:01.768Z,100155.10496005695
2023-07-28T17:32:58.328Z,100159.82097371576
2023-07-28T17:35:53.866Z,100160.65277830268
2023-07-28T17:38:49.432Z,100162.16741786433
2023-07-28T17:41:45.023Z,100166.20809570681
2023-07-28T17:44:40.525Z,100164.95926603561
2023-07-28T17:47:38.139Z,100161.14023956243
2023-07-28T17:50:33.637Z,100161.15022189832
2023-07-28T17:53:31.256Z,100154.77020401349
2023-07-28T17:56:26.768Z,100146.00303442306
2023-07-28T17:59:23.336Z,100152.46537829854
2023-07-28T18:02:18.939Z,100152.38185244624
2023-07-28T18:05:14.475Z,100148.58406451615
2023-07-28T18:08:13.065Z,100149.88394908814
2023-07-28T18:11:08.591Z,100152.00136926255
2023-07-28T18:14:05.180Z,100152.34817329678
2023-07-28T18:17:02.830Z,100159.52465686778
2023-07-28T18:19:59.245Z,100156.66194356002
2023-07-28T18:22:54.843Z,100159.10944401205
2023-07-28T18:25:50.393Z,100168.9707779555
2023-07-28T18:28:45.954Z,100167.83703359743
2023-07-28T18:31:41.515Z,100171.95488865995
2023-07-28T18:34:37.098Z,100169.836371875
2023-07-28T18:37:32.638Z,100166.00675907929
2023-07-28T18:40:30.542Z,100176.22069890202
2023-07-28T18:43:27.773Z,100175.94279455299
2023-07-28T18:46:23.302Z,100178.25314459669
2023-07-28T18:49:18.892Z,100186.23977410953
2023-07-28T18:52:14.454Z,100192.9185461851
2023-07-28T18:55:10.003Z,100197.31577644496
2023-07-28T18:58:05.550Z,100200.39278241186
2023-07-28T19:01:01.092Z,100208.27554354229
2023-07-28T19:03:57.769Z,100208.28817704662
2023-07-28T19:06:53.231Z,100207.86630738644
2023-07-28T19:09:49.797Z,100213.99982113302
2023-07-28T19:12:45.372Z,100213.11619111958
2023-07-28T19:15:47.506Z,100221.43670549557
2023-07-28T19:18:43.492Z,100221.44181832297
2023-07-28T19:21:39.073Z,100223.62219689241
2023-07-28T19:24:34.600Z,100218.32152242318
2023-07-28T19:27:32.308Z,100220.93196113712
2023-07-28T19:30:27.739Z,100217.42986165152
2023-07-28T19:33:23.258Z,100216.99174388252
2023-07-28T19:36:19.808Z,100219.14904226999
2023-07-28T19:39:15.403Z,100219.08104736404
2023-07-28T19:42:10.960Z,100227.37835390739
2023-07-28T19:45:07.546Z,100229.98785794532
2023-07-28T19:48:04.181Z,100233.46363867373
2023-07-28T19:51:00.644Z,100228.19678524294
2023-07-28T19:54:00.177Z,100230.39510280022
2023-07-28T19:56:57.744Z,100227.23420275036
2023-07-28T19:59:53.297Z,100229.34442266428
2023-07-28T20:02:48.944Z,100232.35798824068
2023-07-28T20:05:45.441Z,100231.01994678649
2023-07-28T20:08:41.021Z,100233.11665878117
2023-07-28T20:11:36.548Z,100234.85067627332
2023-07-28T20:14:32.115Z,100233.08602944309
2023-07-28T20:17:29.691Z,100225.94277831884
2023-07-28T20:20:25.216Z,100230.24233318819
2023-07-28T20:23:29.767Z,100233.25861586197
2023-07-28T20:26:26.311Z,100234.1421576136
2023-07-28T20:29:21.957Z,100239.7187300097
2023-07-28T20:32:17.494Z,100239.31252576112
2023-07-28T20:35:15.075Z,100241.92563388517
2023-07-28T20:38:10.533Z,100238.27315313365
2023-07-28T20:41:07.133Z,100237.65102547944
2023-07-28T20:44:04.691Z,100244.20378462538
2023-07-28T20:47:05.275Z,100241.55491847343
2023-07-28T20:50:01.809Z,100245.45831612052
2023-07-28T20:52:58.355Z,100241.93900863496
2023-07-28T20:55:53.956Z,100252.80021217247
2023-07-28T20:58:50.516Z,100247.05148896549
2023-07-28T21:01:46.025Z,100251.23730917077
2023-07-28T21:04:42.617Z,100258.99749790134
2023-07-28T21:07:40.179Z,100259.33489361675
2023-07-28T21:10:36.738Z,100262.37126052406
2023-07-28T21:13:32.284Z,100262.41823369998
2023-07-28T21:16:27.951Z,100268.12716176143
2023-07-28T21:19:23.398Z,100258.97921359993
2023-07-28T21:22:19.991Z,100267.37680082615
2023-07-28T21:25:15.510Z,100273.45225919332
2023-07-28T21:28:12.103Z,100269.48160743948
2023-07-28T21:31:07.691Z,100273.7423968201
2023-07-28T21:34:06.215Z,100273.72334165787
2023-07-28T21:37:01.744Z,100279.73667587934
2023-07-28T21:39:58.295Z,100280.19556627124
2023-07-28T21:42:53.878Z,100277.68567736953
2023-07-28T21:45:50.473Z,100280.7695984224
2023-07-28T21:48:47.031Z,100281.53283239921
2023-07-28T21:51:42.568Z,100279.81469251735
2023-07-28T21:54:38.104Z,100278.9842538455
2023-07-28T21:57:33.680Z,100284.82719075955
2023-07-28T22:00:29.207Z,100280.90415833933
2023-07-28T22:03:24.875Z,100283.03909930514
2023-07-28T22:06:20.397Z,100287.30696043151
2023-07-28T22:09:16.997Z,100285.98890658206
2023-07-28T22:12:12.502Z,100286.93070242563
2023-07-28T22:15:09.083Z,100288.69847466143
2023-07-28T22:18:04.639Z,100283.41604550119
2023-07-28T22:21:02.212Z,100278.70817483298
2023-07-28T22:23:57.769Z,100274.46794092956
2023-07-28T22:26:53.272Z,100280.09838513611
2023-07-28T22:29:51.877Z,100282.7706862392
2023-07-28T22:32:47.443Z,100275.06921341557
2023-07-28T22:35:42.991Z,100278.9668001359
2023-07-28T22:38:39.529Z,100281.2662780741
2023-07-28T22:41:37.430Z,100275.64359622139
2023-07-28T22:44:34.654Z,100279.46336060879
2023-07-28T22:47:30.232Z,100273.93035979194
2023-07-28T22:50:26.770Z,100271.77749265434
2023-07-28T22:53:22.305Z,100269.31561032002
2023-07-28T22:56:17.908Z,100271.08348015066
2023-07-28T22:59:13.452Z,100275.47663395586
2023-07-28T23:02:10.060Z,100273.83624384188
2023-07-28T23:05:09.564Z,100279.95414458358
2023-07-28T23:08:06.127Z,100281.8227896501
2023-07-28T23:11:01.691Z,100280.18191136185
2023-07-28T23:13:57.200Z,100274.64397068089
2023-07-28T23:16:53.885Z,100272.7170041011
2023-07-28T23:19:50.373Z,100267.74339752692
2023-07-28T23:22:45.963Z,100272.14051092132
2023-07-28T23:25:41.541Z,100264.22222766651
2023-07-28T23:28:37.084Z,100268.00424481269
2023-07-28T23:31:43.640Z,100273.01311052435
2023-07-28T23:34:39.150Z,100270.74227747518
2023-07-28T23:37:34.747Z,100271.34899884665
2023-07-28T23:40:30.264Z,100277.75161870274
2023-07-28T23:43:25.845Z,100272.6087307723
2023-07-28T23:46:25.433Z,100272.24270101011
2023-07-28T23:49:20.926Z,100267.75038791716
2023-07-28T23:52:18.545Z,100269.09133835077
2023-07-28T23:55:14.053Z,100258.22630286252
2023-07-28T23:58:10.622Z,100255.30276438562
